Details From DFFD - OUAGADOUGOU
To GOOY - Dakar Leopold Sedar Senghor Intl
Flight Number -
Tags generated
Created
Modified
Stats Distance 950 nm / 1,760 km
Max Altitude 34,500 ft / 10,516 m
Waypoints 11
Social Downloads 1
Likes 0
Share VATSIM

Download

Looking for another format? Having issues loading an existing format? Contact us
Advertisement - Login to hide

Notes

Basic altitude profile: - Ascent Rate: 2500ft/min - Ascent Speed: 250kts - Cruise Altitude: 35000ft - Cruise Speed: 470kts - Descent Rate: 1800ft/min - Descent Speed: 250kts Options: - Use NATs: yes - Use PACOTS: yes - Use low airways: no - Use high airways: yes

Route

DFFD GUPOV UG860 BKO UA601 YF GOOY

ID Type Via Altitude Latitude Longitude Leg Dist Tot Dist Heading (true) Name
O DFFD APT - 0 ft / 0 m 12.35219˚ -1.51161˚ - 0 nm - OUAGADOUGOU
GUPOV FIX - 26,600 ft / 8,108 m 12.39778˚ -2.78139˚ 74 nm 74 nm 272° / 272° -
EDGIB FIX UG860 (AWY-HI) 34,000 ft / 10,363 m 12.45917˚ -4.52667˚ 102 nm 176 nm 272° / 272° -
BKO VOR UG860 (AWY-HI) 34,000 ft / 10,363 m 12.54611˚ -7.93047˚ 199 nm 376 nm 272° / 271° BAMAKO/SENOU VOR-DME
ENINO FIX UA601 (AWY-HI) 34,000 ft / 10,363 m 13.07861˚ -10.43111˚ 149 nm 526 nm 283° / 282° -
GATIL FIX UA601 (AWY-HI) 34,000 ft / 10,363 m 13.44778˚ -12.24250˚ 108 nm 634 nm 282° / 282° -
DEMOL FIX UA601 (AWY-HI) 34,000 ft / 10,363 m 13.54250˚ -12.71778˚ 28 nm 663 nm 282° / 282° -
TD VOR UA601 (AWY-HI) 34,000 ft / 10,363 m 13.72769˚ -13.66397˚ 56 nm 719 nm 281° / 281° TAMBACOUNDA VOR
DISNO FIX UA601 (AWY-HI) 34,500 ft / 10,516 m 14.04361˚ -14.81945˚ 69 nm 789 nm 286° / 286° -
YF VOR UA601 (AWY-HI) 24,500 ft / 7,468 m 14.74483˚ -17.47478˚ 160 nm 949 nm 286° / 285° DAKAR VOR-DME
O GOOY APT - 0 ft / 0 m 14.73971˚ -17.49023˚ 0 nm 950 nm 251° / 251° Dakar Leopold Sedar Senghor Intl

Altitude Profile

Advertisement - Login to hide

Weather


0- 5 10 15 20 25 30 35+ Temperature / ° C

Clouds and Precipitation
Forecast for 2017-12-14 00:00 UTC. Updated an hour ago

Ground ~20,000 ft ~40,000 ft Winds

DFFD

Details ICAO DFFD (OUA)
Name OUAGADOUGOU
Region Burkina Faso
Timezone Africa/Ouagadougou (UTC+0.0)
Stats Elevation 1,037 ft / 316 m (AMSL)
Location 12.352189° -1.511605°
Runways 2
Magnetic Variation 2.288° W

METAR

DFFD 132000Z 00000KT 4000 DU NSC 27/10 Q1014 NOSIG

Decode

TAF

TAF TAF DFFD 131700Z 1318/1424 10008KT 6000 NSC TEMPO 1318/1321 4000 DU TEMPO 1406/1411 3500 DU TEMPO 1417/1421 4000 DU

Decode

Departure Runways

ID Width Length Bearing (true) Bearing (mag) Surface Threshold Offset Overrun Length
04L 148 ft / 45 m 9,968 ft / 3,038 m 33.56° 35.85° Asphalt 0 ft / 0 m 0 ft / 0 m
04R 98 ft / 30 m 6,289 ft / 1,917 m 35.23° 37.52° Gravel 0 ft / 0 m 0 ft / 0 m
22L 98 ft / 30 m 6,289 ft / 1,917 m 215.23° 217.52° Gravel 0 ft / 0 m 0 ft / 0 m
22R 148 ft / 45 m 9,968 ft / 3,038 m 213.57° 215.86° Asphalt 0 ft / 0 m 0 ft / 0 m

GOOY

Details ICAO GOOY (DKR)
Name Dakar Leopold Sedar Senghor Intl
Region Senegal
Timezone Africa/Dakar (UTC+0.0)
Stats Elevation 85 ft / 26 m (AMSL)
Location 14.739711° -17.490226°
Runways 2
Magnetic Variation 7.348° W

METAR

GOOY 132000Z 02016KT 9000 NSC 23/16 Q1014

Decode

TAF

TAF GOOY 131730Z 1318/1424 03015KT CAVOK= TAF GBYD 131730Z 1318/1424 02008KT CAVOK

Decode

Destination Runways

ID Width Length Bearing (true) Bearing (mag) Surface Threshold Offset Overrun Length
03 98 ft / 30 m 4,921 ft / 1,500 m 22.31° 29.66° Asphalt 0 ft / 0 m 98 ft / 30 m
18 148 ft / 45 m 11,511 ft / 3,509 m 172.57° 179.92° Asphalt 525 ft / 160 m 197 ft / 60 m
21 98 ft / 30 m 4,921 ft / 1,500 m 202.31° 209.66° Asphalt 0 ft / 0 m 1,590 ft / 485 m
36 148 ft / 45 m 11,511 ft / 3,509 m 352.57° 359.92° Asphalt 0 ft / 0 m 197 ft / 60 m

Approach Navaids

Runway Type Ident Frequency Range Bearing (true) Bearing (mag) Slope Elevation
36 Localiser YF 110.30 MHz 18 nm / 33 km 352.33° 359.67° - 65 ft / 20 m (AMSL)
36 Glidescope YF 110.30 MHz 10 nm / 19 km 352.57° 359.92° 3.01° 73 ft / 22 m (AMSL)
36 DME YF 110.30 MHz 18 nm / 33 km - - - 73 ft / 22 m (AMSL)